Observations for SIOUX FALLS FOSS, SD (FSD)

KFSD 112156Z 27003KT 10SM BKN110 OVC250 M01/M04 A2984 RMK AO2 SLP128 T10061044  
KFSD 112056Z 33003KT 10SM BKN190 OVC250 M01/M05 A2983 RMK AO2 SLP124 T10061050 56021
KFSD 111956Z 31003KT 10SM BKN150 OVC250 M01/M05 A2984 RMK AO2 SLP125 T10061050  
KFSD 111856Z 09006KT 10SM BKN170 OVC250 M02/M06 A2983 RMK AO2 SLP125 T10171056  
KFSD 111756Z 00000KT 10SM BKN150 OVC250 M03/M07 A2989 RMK AO2 SLP147 I6000 T10331067 11033 21122 58018  
KFSD 111656Z 03003KT 9SM SCT180 BKN250 M04/M08 A2994 RMK AO2 SLP161 T10441078   
KFSD 111556Z 02003KT 9SM FEW150 BKN250 M07/M09 A2994 RMK AO2 SLP162 T10721094   
KFSD 111456Z 03004KT 9SM OVC250 M09/M12 A2995 RMK AO2 SLP166 I3000 T10941117 55000  
KFSD 111356Z 05004KT 10SM SCT250 M12/M14 A2995 RMK AO2 SLP170 T11171139 
KFSD 111256Z 01003KT 10SM FEW002 FEW250 M12/M14 A2995 RMK AO2 SLP166 I1000 T11171139
KFSD 111156Z 03004KT 10SM FEW002 FEW250 M11/M13 A2995 RMK AO2 SLP166 I1000 I6000 T11111133 11083 21117 56007
KFSD 111056Z 06003KT 10SM FEW002 M11/M12 A2995 RMK AO2 SLP168 I1000 T11061122   
KFSD 111045Z 05003KT 10SM FEW002 M11/M13 A2995 RMK AO2 I1000 T11111128
KFSD 110956Z AUTO 02004KT 10SM CLR M10/M12 A2996 RMK AO2 SLP167 I1000 T11001117 
KFSD 110856Z AUTO 03004KT 9SM CLR M11/M12 A2997 RMK AO2 SLP172 I1000 I3000 T11061122 58005  
KFSD 110756Z AUTO 04003KT 10SM CLR M11/M12 A2998 RMK AO2 SLP173 I1000 T11111122 
KFSD 110656Z AUTO 00000KT 10SM CLR M09/M11 A2998 RMK AO2 SLP176 I1000 T10941111 
KFSD 110556Z 00000KT 10SM BKN180 M09/M11 A2999 RMK AO2 SLP178 LAST T10891106 11028 21094 400001111 58006
KFSD 110456Z 00000KT 10SM SCT220 M07/M08 A3000 RMK AO2 SLP181 T10671083 
KFSD 110356Z 00000KT 10SM SCT200 M07/M09 A3000 RMK AO2 SLP184 T10671094 
KFSD 110256Z 20004KT 10SM BKN200 M05/M08 A3001 RMK AO2 SLP186 T10501083 58003   
KFSD 110156Z 18003KT 10SM CLR M06/M09 A3001 RMK AO2 SLP188 T10611094
KFSD 110056Z 21004KT 10SM CLR M04/M08 A3002 RMK AO2 SLP192 T10391083
KFSD 102356Z 21005KT 10SM SCT250 M03/M08 A3002 RMK AO2 SLP189 T10331083 10000 21044 56010   
KFSD 102256Z 20007KT 10SM SCT250 M03/M08 A3003 RMK AO2 SLP192 T10281083 
KFSD 102156Z 19007KT 10SM SCT250 M01/M07 A3003 RMK AO2 SLP191 T10111067